sensor_id;sensor_type;location;lat;lon;timestamp;P1;durP1;ratioP1;P2;durP2;ratioP2
78985;SDS011;68384;55.750;48.746;2023-12-04T00:00:42;8.00;;;4.57;;
78985;SDS011;68384;55.750;48.746;2023-12-04T00:01:44;9.43;;;4.68;;
78985;SDS011;68384;55.750;48.746;2023-12-04T00:02:47;7.43;;;3.92;;
78985;SDS011;68384;55.750;48.746;2023-12-04T00:03:50;8.27;;;4.28;;
78985;SDS011;68384;55.750;48.746;2023-12-04T00:04:52;6.20;;;3.75;;
78985;SDS011;68384;55.750;48.746;2023-12-04T00:05:55;11.85;;;4.40;;
78985;SDS011;68384;55.750;48.746;2023-12-04T00:06:57;11.68;;;5.63;;
78985;SDS011;68384;55.750;48.746;2023-12-04T00:07:59;7.78;;;5.15;;
78985;SDS011;68384;55.750;48.746;2023-12-04T00:09:02;9.80;;;5.18;;
78985;SDS011;68384;55.750;48.746;2023-12-04T00:10:04;9.52;;;4.95;;
78985;SDS011;68384;55.750;48.746;2023-12-04T00:11:07;6.05;;;4.00;;
78985;SDS011;68384;55.750;48.746;2023-12-04T00:12:10;8.02;;;4.38;;
78985;SDS011;68384;55.750;48.746;2023-12-04T00:13:12;5.43;;;3.83;;
78985;SDS011;68384;55.750;48.746;2023-12-04T00:14:15;9.75;;;5.18;;
78985;SDS011;68384;55.750;48.746;2023-12-04T00:15:18;6.43;;;4.28;;
78985;SDS011;68384;55.750;48.746;2023-12-04T00:16:21;9.40;;;4.45;;
78985;SDS011;68384;55.750;48.746;2023-12-04T00:17:24;7.05;;;3.88;;
78985;SDS011;68384;55.750;48.746;2023-12-04T00:18:26;8.55;;;4.82;;
78985;SDS011;68384;55.750;48.746;2023-12-04T00:19:29;7.60;;;4.35;;
78985;SDS011;68384;55.750;48.746;2023-12-04T00:20:32;6.45;;;3.47;;
78985;SDS011;68384;55.750;48.746;2023-12-04T00:21:34;8.52;;;4.72;;
78985;SDS011;68384;55.750;48.746;2023-12-04T00:22:37;7.75;;;4.88;;
78985;SDS011;68384;55.750;48.746;2023-12-04T00:23:39;7.97;;;4.72;;
78985;SDS011;68384;55.750;48.746;2023-12-04T00:24:42;10.88;;;5.63;;
78985;SDS011;68384;55.750;48.746;2023-12-04T00:25:44;9.23;;;4.95;;
78985;SDS011;68384;55.750;48.746;2023-12-04T00:26:46;10.10;;;4.78;;
78985;SDS011;68384;55.750;48.746;2023-12-04T00:27:49;9.10;;;5.00;;
78985;SDS011;68384;55.750;48.746;2023-12-04T00:28:51;8.02;;;4.53;;
78985;SDS011;68384;55.750;48.746;2023-12-04T00:29:53;8.32;;;5.18;;
78985;SDS011;68384;55.750;48.746;2023-12-04T00:30:56;13.50;;;5.40;;
78985;SDS011;68384;55.750;48.746;2023-12-04T00:31:58;7.05;;;4.07;;
78985;SDS011;68384;55.750;48.746;2023-12-04T00:33:01;6.97;;;4.25;;
78985;SDS011;68384;55.750;48.746;2023-12-04T00:34:03;8.52;;;4.97;;
78985;SDS011;68384;55.750;48.746;2023-12-04T00:35:06;7.18;;;4.50;;
78985;SDS011;68384;55.750;48.746;2023-12-04T00:36:09;9.43;;;5.07;;
78985;SDS011;68384;55.750;48.746;2023-12-04T00:37:12;7.93;;;4.40;;
78985;SDS011;68384;55.750;48.746;2023-12-04T00:38:14;7.68;;;4.25;;
78985;SDS011;68384;55.750;48.746;2023-12-04T00:39:16;10.70;;;4.90;;
78985;SDS011;68384;55.750;48.746;2023-12-04T00:40:19;8.80;;;4.75;;
78985;SDS011;68384;55.750;48.746;2023-12-04T00:41:21;8.27;;;4.80;;
78985;SDS011;68384;55.750;48.746;2023-12-04T00:42:23;8.57;;;5.30;;
78985;SDS011;68384;55.750;48.746;2023-12-04T00:43:25;8.43;;;4.90;;
78985;SDS011;68384;55.750;48.746;2023-12-04T00:44:28;8.07;;;4.57;;
78985;SDS011;68384;55.750;48.746;2023-12-04T00:45:30;7.68;;;4.22;;
78985;SDS011;68384;55.750;48.746;2023-12-04T00:46:33;9.45;;;4.65;;
78985;SDS011;68384;55.750;48.746;2023-12-04T00:47:35;8.80;;;4.95;;
78985;SDS011;68384;55.750;48.746;2023-12-04T00:48:38;7.78;;;4.78;;
78985;SDS011;68384;55.750;48.746;2023-12-04T00:49:40;6.60;;;3.90;;
78985;SDS011;68384;55.750;48.746;2023-12-04T00:50:43;8.05;;;4.25;;
78985;SDS011;68384;55.750;48.746;2023-12-04T00:51:45;7.53;;;4.75;;
78985;SDS011;68384;55.750;48.746;2023-12-04T00:52:47;8.55;;;5.13;;
78985;SDS011;68384;55.750;48.746;2023-12-04T00:53:50;8.10;;;4.68;;
78985;SDS011;68384;55.750;48.746;2023-12-04T00:54:52;10.20;;;4.82;;
78985;SDS011;68384;55.750;48.746;2023-12-04T00:55:55;7.22;;;4.15;;
78985;SDS011;68384;55.750;48.746;2023-12-04T00:56:57;9.48;;;5.18;;
78985;SDS011;68384;55.750;48.746;2023-12-04T00:58:00;9.30;;;4.82;;
78985;SDS011;68384;55.750;48.746;2023-12-04T00:59:03;8.65;;;5.00;;
78985;SDS011;68384;55.750;48.746;2023-12-04T01:00:05;8.80;;;4.47;;
78985;SDS011;68384;55.750;48.746;2023-12-04T01:01:08;9.77;;;4.53;;
78985;SDS011;68384;55.750;48.746;2023-12-04T01:02:11;9.93;;;4.50;;
78985;SDS011;68384;55.750;48.746;2023-12-04T01:03:13;9.90;;;5.00;;
78985;SDS011;68384;55.750;48.746;2023-12-04T01:04:15;7.60;;;4.88;;
78985;SDS011;68384;55.750;48.746;2023-12-04T01:05:18;9.57;;;5.10;;
78985;SDS011;68384;55.750;48.746;2023-12-04T01:06:21;8.65;;;4.80;;
78985;SDS011;68384;55.750;48.746;2023-12-04T01:07:24;9.32;;;5.10;;
78985;SDS011;68384;55.750;48.746;2023-12-04T01:08:26;7.68;;;4.93;;
78985;SDS011;68384;55.750;48.746;2023-12-04T01:09:29;13.25;;;5.40;;
78985;SDS011;68384;55.750;48.746;2023-12-04T01:10:31;8.48;;;4.75;;
78985;SDS011;68384;55.750;48.746;2023-12-04T01:11:34;6.32;;;4.22;;
78985;SDS011;68384;55.750;48.746;2023-12-04T01:12:38;11.43;;;5.28;;
78985;SDS011;68384;55.750;48.746;2023-12-04T01:13:40;10.85;;;4.72;;
78985;SDS011;68384;55.750;48.746;2023-12-04T01:14:43;7.35;;;4.45;;
78985;SDS011;68384;55.750;48.746;2023-12-04T01:15:45;10.05;;;4.35;;
78985;SDS011;68384;55.750;48.746;2023-12-04T01:16:48;8.10;;;5.07;;
78985;SDS011;68384;55.750;48.746;2023-12-04T01:17:51;9.48;;;5.75;;
78985;SDS011;68384;55.750;48.746;2023-12-04T01:18:53;6.93;;;4.63;;
78985;SDS011;68384;55.750;48.746;2023-12-04T01:19:56;8.50;;;4.70;;
78985;SDS011;68384;55.750;48.746;2023-12-04T01:20:59;13.05;;;5.32;;
78985;SDS011;68384;55.750;48.746;2023-12-04T01:22:02;6.40;;;4.13;;
78985;SDS011;68384;55.750;48.746;2023-12-04T01:23:04;9.15;;;4.72;;
78985;SDS011;68384;55.750;48.746;2023-12-04T01:24:06;7.80;;;4.20;;
78985;SDS011;68384;55.750;48.746;2023-12-04T01:25:09;7.75;;;4.50;;
78985;SDS011;68384;55.750;48.746;2023-12-04T01:26:11;6.68;;;4.30;;
78985;SDS011;68384;55.750;48.746;2023-12-04T01:27:14;6.50;;;4.15;;
78985;SDS011;68384;55.750;48.746;2023-12-04T01:28:16;7.43;;;4.20;;
78985;SDS011;68384;55.750;48.746;2023-12-04T01:29:19;8.20;;;5.28;;
78985;SDS011;68384;55.750;48.746;2023-12-04T01:30:21;10.38;;;4.63;;
78985;SDS011;68384;55.750;48.746;2023-12-04T01:31:23;7.35;;;4.05;;
78985;SDS011;68384;55.750;48.746;2023-12-04T01:32:26;5.57;;;3.70;;
78985;SDS011;68384;55.750;48.746;2023-12-04T01:33:29;9.32;;;5.10;;
78985;SDS011;68384;55.750;48.746;2023-12-04T01:34:32;6.63;;;4.40;;
78985;SDS011;68384;55.750;48.746;2023-12-04T01:35:34;8.15;;;4.53;;
78985;SDS011;68384;55.750;48.746;2023-12-04T01:36:39;7.63;;;4.45;;
78985;SDS011;68384;55.750;48.746;2023-12-04T01:37:43;6.35;;;3.58;;
78985;SDS011;68384;55.750;48.746;2023-12-04T01:38:45;7.88;;;4.20;;
78985;SDS011;68384;55.750;48.746;2023-12-04T01:39:47;6.82;;;4.07;;
78985;SDS011;68384;55.750;48.746;2023-12-04T01:40:49;7.10;;;4.25;;
78985;SDS011;68384;55.750;48.746;2023-12-04T01:41:52;6.80;;;4.00;;
78985;SDS011;68384;55.750;48.746;2023-12-04T01:42:55;8.05;;;5.00;;
78985;SDS011;68384;55.750;48.746;2023-12-04T01:43:57;8.75;;;4.55;;
78985;SDS011;68384;55.750;48.746;2023-12-04T01:44:59;7.30;;;4.30;;
78985;SDS011;68384;55.750;48.746;2023-12-04T01:46:02;6.60;;;3.92;;
78985;SDS011;68384;55.750;48.746;2023-12-04T01:47:05;8.02;;;4.60;;
78985;SDS011;68384;55.750;48.746;2023-12-04T01:48:09;7.65;;;4.40;;
78985;SDS011;68384;55.750;48.746;2023-12-04T01:49:12;8.10;;;4.75;;
78985;SDS011;68384;55.750;48.746;2023-12-04T01:50:15;6.43;;;3.55;;
78985;SDS011;68384;55.750;48.746;2023-12-04T01:51:18;5.65;;;3.75;;
78985;SDS011;68384;55.750;48.746;2023-12-04T01:52:22;8.35;;;4.20;;
78985;SDS011;68384;55.750;48.746;2023-12-04T01:53:25;7.40;;;4.03;;
78985;SDS011;68384;55.750;48.746;2023-12-04T01:54:28;7.07;;;3.47;;
78985;SDS011;68384;55.750;48.746;2023-12-04T01:55:31;7.88;;;4.07;;
78985;SDS011;68384;55.750;48.746;2023-12-04T01:57:38;14.63;;;4.38;;
78985;SDS011;68384;55.750;48.746;2023-12-04T01:58:40;6.63;;;3.78;;
78985;SDS011;68384;55.750;48.746;2023-12-04T01:59:43;6.32;;;3.35;;
78985;SDS011;68384;55.750;48.746;2023-12-04T02:00:47;7.60;;;3.70;;
78985;SDS011;68384;55.750;48.746;2023-12-04T02:01:49;6.32;;;3.78;;
78985;SDS011;68384;55.750;48.746;2023-12-04T02:02:52;6.35;;;4.22;;
78985;SDS011;68384;55.750;48.746;2023-12-04T02:03:54;6.05;;;3.83;;
78985;SDS011;68384;55.750;48.746;2023-12-04T02:04:58;7.40;;;4.22;;
78985;SDS011;68384;55.750;48.746;2023-12-04T02:06:03;4.03;;;2.92;;
78985;SDS011;68384;55.750;48.746;2023-12-04T02:07:07;5.68;;;3.47;;
78985;SDS011;68384;55.750;48.746;2023-12-04T02:08:11;7.25;;;3.95;;
78985;SDS011;68384;55.750;48.746;2023-12-04T02:09:14;7.85;;;3.83;;
78985;SDS011;68384;55.750;48.746;2023-12-04T02:10:18;4.53;;;2.67;;
78985;SDS011;68384;55.750;48.746;2023-12-04T02:11:20;7.78;;;4.30;;
78985;SDS011;68384;55.750;48.746;2023-12-04T02:12:23;5.15;;;3.08;;
78985;SDS011;68384;55.750;48.746;2023-12-04T02:13:26;5.63;;;3.38;;
78985;SDS011;68384;55.750;48.746;2023-12-04T02:14:29;6.20;;;4.15;;
78985;SDS011;68384;55.750;48.746;2023-12-04T02:15:31;5.93;;;3.38;;
78985;SDS011;68384;55.750;48.746;2023-12-04T02:16:37;5.90;;;3.15;;
78985;SDS011;68384;55.750;48.746;2023-12-04T02:17:45;6.90;;;3.63;;
78985;SDS011;68384;55.750;48.746;2023-12-04T02:18:47;5.45;;;3.70;;
78985;SDS011;68384;55.750;48.746;2023-12-04T02:19:50;6.07;;;3.88;;
78985;SDS011;68384;55.750;48.746;2023-12-04T02:20:53;5.10;;;3.38;;
78985;SDS011;68384;55.750;48.746;2023-12-04T02:21:55;5.13;;;3.03;;
78985;SDS011;68384;55.750;48.746;2023-12-04T02:22:58;5.75;;;3.67;;
78985;SDS011;68384;55.750;48.746;2023-12-04T02:24:00;5.25;;;3.45;;
78985;SDS011;68384;55.750;48.746;2023-12-04T02:25:02;5.82;;;3.50;;
78985;SDS011;68384;55.750;48.746;2023-12-04T02:26:10;11.75;;;3.97;;
78985;SDS011;68384;55.750;48.746;2023-12-04T02:27:18;7.30;;;4.18;;
78985;SDS011;68384;55.750;48.746;2023-12-04T02:28:25;7.85;;;3.65;;
78985;SDS011;68384;55.750;48.746;2023-12-04T02:29:35;6.97;;;4.13;;
78985;SDS011;68384;55.750;48.746;2023-12-04T02:30:43;5.10;;;3.40;;
78985;SDS011;68384;55.750;48.746;2023-12-04T02:31:46;5.95;;;3.50;;
78985;SDS011;68384;55.750;48.746;2023-12-04T02:32:51;6.30;;;3.55;;
78985;SDS011;68384;55.750;48.746;2023-12-04T02:33:56;7.47;;;4.30;;
78985;SDS011;68384;55.750;48.746;2023-12-04T02:35:02;5.82;;;3.67;;
78985;SDS011;68384;55.750;48.746;2023-12-04T02:36:07;5.32;;;3.38;;
78985;SDS011;68384;55.750;48.746;2023-12-04T02:37:10;6.47;;;3.63;;
78985;SDS011;68384;55.750;48.746;2023-12-04T02:38:13;6.32;;;3.38;;
78985;SDS011;68384;55.750;48.746;2023-12-04T02:39:15;6.82;;;3.35;;
78985;SDS011;68384;55.750;48.746;2023-12-04T02:40:18;6.88;;;3.28;;
78985;SDS011;68384;55.750;48.746;2023-12-04T02:41:21;5.95;;;3.40;;
78985;SDS011;68384;55.750;48.746;2023-12-04T02:42:24;4.97;;;3.22;;
78985;SDS011;68384;55.750;48.746;2023-12-04T02:43:29;4.38;;;3.08;;
78985;SDS011;68384;55.750;48.746;2023-12-04T02:44:31;5.95;;;3.60;;
78985;SDS011;68384;55.750;48.746;2023-12-04T02:45:34;6.25;;;3.88;;
78985;SDS011;68384;55.750;48.746;2023-12-04T02:46:37;5.43;;;3.28;;
78985;SDS011;68384;55.750;48.746;2023-12-04T02:47:39;6.28;;;3.72;;
78985;SDS011;68384;55.750;48.746;2023-12-04T02:48:42;5.65;;;3.00;;
78985;SDS011;68384;55.750;48.746;2023-12-04T02:49:45;5.85;;;3.42;;
78985;SDS011;68384;55.750;48.746;2023-12-04T02:50:47;5.00;;;3.72;;
78985;SDS011;68384;55.750;48.746;2023-12-04T02:51:50;6.40;;;3.70;;
78985;SDS011;68384;55.750;48.746;2023-12-04T02:52:52;5.55;;;3.90;;
78985;SDS011;68384;55.750;48.746;2023-12-04T02:53:55;6.00;;;3.63;;
78985;SDS011;68384;55.750;48.746;2023-12-04T02:54:57;5.97;;;3.58;;
78985;SDS011;68384;55.750;48.746;2023-12-04T02:55:59;5.97;;;3.63;;
78985;SDS011;68384;55.750;48.746;2023-12-04T02:57:02;6.78;;;3.80;;
78985;SDS011;68384;55.750;48.746;2023-12-04T02:58:05;5.07;;;3.35;;
78985;SDS011;68384;55.750;48.746;2023-12-04T02:59:07;6.28;;;3.10;;
78985;SDS011;68384;55.750;48.746;2023-12-04T03:00:09;5.10;;;2.95;;
78985;SDS011;68384;55.750;48.746;2023-12-04T03:01:12;9.77;;;3.60;;
78985;SDS011;68384;55.750;48.746;2023-12-04T03:02:15;5.93;;;3.60;;
78985;SDS011;68384;55.750;48.746;2023-12-04T03:03:17;4.28;;;2.70;;
78985;SDS011;68384;55.750;48.746;2023-12-04T03:04:19;5.88;;;3.38;;
78985;SDS011;68384;55.750;48.746;2023-12-04T03:05:22;4.93;;;3.05;;
78985;SDS011;68384;55.750;48.746;2023-12-04T03:06:24;5.15;;;2.92;;
78985;SDS011;68384;55.750;48.746;2023-12-04T03:07:27;6.18;;;3.75;;
78985;SDS011;68384;55.750;48.746;2023-12-04T03:08:29;3.97;;;2.92;;
78985;SDS011;68384;55.750;48.746;2023-12-04T03:09:31;7.55;;;3.60;;
78985;SDS011;68384;55.750;48.746;2023-12-04T03:10:50;4.75;;;3.38;;
78985;SDS011;68384;55.750;48.746;2023-12-04T03:11:52;5.30;;;3.63;;
78985;SDS011;68384;55.750;48.746;2023-12-04T03:12:54;4.82;;;2.78;;
78985;SDS011;68384;55.750;48.746;2023-12-04T03:13:59;4.00;;;2.58;;
78985;SDS011;68384;55.750;48.746;2023-12-04T03:15:03;4.32;;;2.85;;
78985;SDS011;68384;55.750;48.746;2023-12-04T03:16:14;3.95;;;2.67;;
78985;SDS011;68384;55.750;48.746;2023-12-04T03:17:22;5.03;;;2.80;;
78985;SDS011;68384;55.750;48.746;2023-12-04T03:18:25;5.25;;;3.25;;
78985;SDS011;68384;55.750;48.746;2023-12-04T03:19:28;4.63;;;2.92;;
78985;SDS011;68384;55.750;48.746;2023-12-04T03:20:32;4.68;;;3.03;;
78985;SDS011;68384;55.750;48.746;2023-12-04T03:21:35;5.63;;;3.40;;
78985;SDS011;68384;55.750;48.746;2023-12-04T03:22:38;4.35;;;3.10;;
78985;SDS011;68384;55.750;48.746;2023-12-04T03:23:40;4.07;;;2.60;;
78985;SDS011;68384;55.750;48.746;2023-12-04T03:24:42;5.57;;;3.35;;
78985;SDS011;68384;55.750;48.746;2023-12-04T03:25:45;3.58;;;2.75;;
78985;SDS011;68384;55.750;48.746;2023-12-04T03:26:47;3.78;;;2.40;;
78985;SDS011;68384;55.750;48.746;2023-12-04T03:27:50;5.40;;;3.25;;
78985;SDS011;68384;55.750;48.746;2023-12-04T03:28:52;4.35;;;2.85;;
78985;SDS011;68384;55.750;48.746;2023-12-04T03:29:55;4.70;;;3.05;;
78985;SDS011;68384;55.750;48.746;2023-12-04T03:30:57;4.55;;;2.85;;
78985;SDS011;68384;55.750;48.746;2023-12-04T03:31:59;3.60;;;2.55;;
78985;SDS011;68384;55.750;48.746;2023-12-04T03:33:02;4.22;;;2.58;;
78985;SDS011;68384;55.750;48.746;2023-12-04T03:34:05;3.95;;;3.15;;
78985;SDS011;68384;55.750;48.746;2023-12-04T03:35:07;4.80;;;3.13;;
78985;SDS011;68384;55.750;48.746;2023-12-04T03:36:10;4.50;;;2.72;;
78985;SDS011;68384;55.750;48.746;2023-12-04T03:37:12;5.32;;;3.10;;
78985;SDS011;68384;55.750;48.746;2023-12-04T03:38:14;4.20;;;2.53;;
78985;SDS011;68384;55.750;48.746;2023-12-04T03:39:17;5.30;;;3.45;;
78985;SDS011;68384;55.750;48.746;2023-12-04T03:40:19;4.90;;;3.15;;
78985;SDS011;68384;55.750;48.746;2023-12-04T03:41:21;4.28;;;2.80;;
78985;SDS011;68384;55.750;48.746;2023-12-04T03:42:25;3.60;;;2.22;;
78985;SDS011;68384;55.750;48.746;2023-12-04T03:43:27;4.65;;;2.95;;
78985;SDS011;68384;55.750;48.746;2023-12-04T03:44:29;4.75;;;3.35;;
78985;SDS011;68384;55.750;48.746;2023-12-04T03:45:32;5.07;;;3.17;;
78985;SDS011;68384;55.750;48.746;2023-12-04T03:46:35;5.47;;;2.78;;
78985;SDS011;68384;55.750;48.746;2023-12-04T03:47:37;4.90;;;3.13;;
78985;SDS011;68384;55.750;48.746;2023-12-04T03:48:39;4.28;;;2.97;;
78985;SDS011;68384;55.750;48.746;2023-12-04T03:49:42;4.22;;;3.03;;
78985;SDS011;68384;55.750;48.746;2023-12-04T03:50:44;5.15;;;3.30;;
78985;SDS011;68384;55.750;48.746;2023-12-04T03:51:46;6.50;;;3.45;;
78985;SDS011;68384;55.750;48.746;2023-12-04T03:52:48;4.40;;;2.97;;
78985;SDS011;68384;55.750;48.746;2023-12-04T03:53:51;5.65;;;3.13;;
78985;SDS011;68384;55.750;48.746;2023-12-04T03:54:53;5.95;;;3.53;;
78985;SDS011;68384;55.750;48.746;2023-12-04T03:55:57;5.13;;;3.38;;
78985;SDS011;68384;55.750;48.746;2023-12-04T03:57:00;5.95;;;3.75;;
78985;SDS011;68384;55.750;48.746;2023-12-04T03:58:02;7.03;;;4.45;;
78985;SDS011;68384;55.750;48.746;2023-12-04T03:59:05;6.00;;;3.80;;
78985;SDS011;68384;55.750;48.746;2023-12-04T04:00:09;6.32;;;4.03;;
78985;SDS011;68384;55.750;48.746;2023-12-04T04:01:12;5.55;;;3.58;;
78985;SDS011;68384;55.750;48.746;2023-12-04T04:02:14;7.47;;;3.97;;
78985;SDS011;68384;55.750;48.746;2023-12-04T04:03:17;6.40;;;3.65;;
78985;SDS011;68384;55.750;48.746;2023-12-04T04:04:19;7.72;;;4.63;;
78985;SDS011;68384;55.750;48.746;2023-12-04T04:05:22;5.85;;;3.88;;
78985;SDS011;68384;55.750;48.746;2023-12-04T04:06:24;7.35;;;4.00;;
78985;SDS011;68384;55.750;48.746;2023-12-04T04:07:29;7.40;;;4.82;;
78985;SDS011;68384;55.750;48.746;2023-12-04T04:08:32;6.35;;;4.07;;
78985;SDS011;68384;55.750;48.746;2023-12-04T04:09:34;7.30;;;5.00;;
78985;SDS011;68384;55.750;48.746;2023-12-04T04:10:37;8.10;;;4.18;;
78985;SDS011;68384;55.750;48.746;2023-12-04T04:11:40;5.68;;;3.95;;
78985;SDS011;68384;55.750;48.746;2023-12-04T04:12:42;8.07;;;4.88;;
78985;SDS011;68384;55.750;48.746;2023-12-04T04:13:44;6.95;;;4.03;;
78985;SDS011;68384;55.750;48.746;2023-12-04T04:14:47;7.47;;;4.00;;
78985;SDS011;68384;55.750;48.746;2023-12-04T04:15:49;5.88;;;3.63;;
78985;SDS011;68384;55.750;48.746;2023-12-04T04:16:52;7.03;;;5.15;;
78985;SDS011;68384;55.750;48.746;2023-12-04T04:17:54;6.47;;;4.53;;
78985;SDS011;68384;55.750;48.746;2023-12-04T04:18:57;6.93;;;4.45;;
78985;SDS011;68384;55.750;48.746;2023-12-04T04:19:59;7.07;;;4.30;;
78985;SDS011;68384;55.750;48.746;2023-12-04T04:21:02;6.40;;;4.43;;
78985;SDS011;68384;55.750;48.746;2023-12-04T04:22:05;8.95;;;4.35;;
78985;SDS011;68384;55.750;48.746;2023-12-04T04:23:07;6.95;;;4.57;;
78985;SDS011;68384;55.750;48.746;2023-12-04T04:24:09;9.73;;;4.47;;
78985;SDS011;68384;55.750;48.746;2023-12-04T04:25:12;8.00;;;5.05;;
78985;SDS011;68384;55.750;48.746;2023-12-04T04:26:14;7.53;;;4.82;;
78985;SDS011;68384;55.750;48.746;2023-12-04T04:27:17;7.53;;;4.78;;
78985;SDS011;68384;55.750;48.746;2023-12-04T04:28:19;7.63;;;5.20;;
78985;SDS011;68384;55.750;48.746;2023-12-04T04:29:21;7.40;;;4.68;;
78985;SDS011;68384;55.750;48.746;2023-12-04T04:30:24;10.82;;;6.25;;
78985;SDS011;68384;55.750;48.746;2023-12-04T04:31:26;10.13;;;5.90;;
78985;SDS011;68384;55.750;48.746;2023-12-04T04:32:29;8.38;;;4.53;;
78985;SDS011;68384;55.750;48.746;2023-12-04T04:33:31;6.90;;;4.50;;
78985;SDS011;68384;55.750;48.746;2023-12-04T04:34:34;7.60;;;4.82;;
78985;SDS011;68384;55.750;48.746;2023-12-04T04:35:36;8.15;;;5.20;;
78985;SDS011;68384;55.750;48.746;2023-12-04T04:36:38;8.15;;;4.68;;
78985;SDS011;68384;55.750;48.746;2023-12-04T04:37:41;8.02;;;4.97;;
78985;SDS011;68384;55.750;48.746;2023-12-04T04:38:46;8.85;;;5.28;;
78985;SDS011;68384;55.750;48.746;2023-12-04T04:39:48;8.07;;;4.85;;
78985;SDS011;68384;55.750;48.746;2023-12-04T04:40:51;9.45;;;5.68;;
78985;SDS011;68384;55.750;48.746;2023-12-04T04:41:54;8.60;;;5.07;;
78985;SDS011;68384;55.750;48.746;2023-12-04T04:42:56;7.32;;;4.68;;
78985;SDS011;68384;55.750;48.746;2023-12-04T04:43:59;8.25;;;4.82;;
78985;SDS011;68384;55.750;48.746;2023-12-04T04:45:01;7.90;;;5.22;;
78985;SDS011;68384;55.750;48.746;2023-12-04T04:46:05;8.35;;;5.40;;
78985;SDS011;68384;55.750;48.746;2023-12-04T04:47:07;9.82;;;6.20;;
78985;SDS011;68384;55.750;48.746;2023-12-04T04:48:10;9.60;;;5.80;;
78985;SDS011;68384;55.750;48.746;2023-12-04T04:49:12;8.75;;;5.50;;
78985;SDS011;68384;55.750;48.746;2023-12-04T04:50:14;10.93;;;6.82;;
78985;SDS011;68384;55.750;48.746;2023-12-04T04:51:17;12.77;;;7.88;;
78985;SDS011;68384;55.750;48.746;2023-12-04T04:52:19;8.18;;;5.13;;
78985;SDS011;68384;55.750;48.746;2023-12-04T04:53:22;10.00;;;6.32;;
78985;SDS011;68384;55.750;48.746;2023-12-04T04:54:24;8.20;;;5.40;;
78985;SDS011;68384;55.750;48.746;2023-12-04T04:55:26;9.80;;;5.88;;
78985;SDS011;68384;55.750;48.746;2023-12-04T04:56:49;8.75;;;5.13;;
78985;SDS011;68384;55.750;48.746;2023-12-04T04:57:53;9.32;;;5.38;;
78985;SDS011;68384;55.750;48.746;2023-12-04T04:58:55;9.23;;;5.40;;
78985;SDS011;68384;55.750;48.746;2023-12-04T04:59:58;8.88;;;5.15;;
78985;SDS011;68384;55.750;48.746;2023-12-04T05:01:00;7.28;;;4.95;;
78985;SDS011;68384;55.750;48.746;2023-12-04T05:02:03;8.68;;;5.45;;
78985;SDS011;68384;55.750;48.746;2023-12-04T05:03:07;9.63;;;6.00;;
78985;SDS011;68384;55.750;48.746;2023-12-04T05:04:10;9.13;;;5.40;;
78985;SDS011;68384;55.750;48.746;2023-12-04T05:05:12;9.70;;;5.68;;
78985;SDS011;68384;55.750;48.746;2023-12-04T05:06:14;9.30;;;5.68;;
78985;SDS011;68384;55.750;48.746;2023-12-04T05:07:17;9.80;;;5.78;;
78985;SDS011;68384;55.750;48.746;2023-12-04T05:08:20;9.70;;;5.60;;
78985;SDS011;68384;55.750;48.746;2023-12-04T05:09:23;10.68;;;6.07;;
78985;SDS011;68384;55.750;48.746;2023-12-04T05:10:25;8.13;;;5.10;;
78985;SDS011;68384;55.750;48.746;2023-12-04T05:11:28;8.52;;;5.47;;
78985;SDS011;68384;55.750;48.746;2023-12-04T05:12:30;10.02;;;5.78;;
78985;SDS011;68384;55.750;48.746;2023-12-04T05:13:33;9.35;;;5.70;;
78985;SDS011;68384;55.750;48.746;2023-12-04T05:14:36;10.38;;;5.43;;
78985;SDS011;68384;55.750;48.746;2023-12-04T05:15:38;10.95;;;5.30;;
78985;SDS011;68384;55.750;48.746;2023-12-04T05:16:40;12.60;;;7.00;;
78985;SDS011;68384;55.750;48.746;2023-12-04T05:17:43;11.30;;;6.80;;
78985;SDS011;68384;55.750;48.746;2023-12-04T05:18:45;13.10;;;7.60;;
78985;SDS011;68384;55.750;48.746;2023-12-04T05:19:47;9.50;;;5.85;;
78985;SDS011;68384;55.750;48.746;2023-12-04T05:20:50;14.93;;;6.72;;
78985;SDS011;68384;55.750;48.746;2023-12-04T05:21:53;16.15;;;4.85;;
78985;SDS011;68384;55.750;48.746;2023-12-04T05:22:56;8.52;;;5.15;;
78985;SDS011;68384;55.750;48.746;2023-12-04T05:25:01;7.03;;;4.80;;
78985;SDS011;68384;55.750;48.746;2023-12-04T05:27:07;6.50;;;3.58;;
78985;SDS011;68384;55.750;48.746;2023-12-04T05:28:10;7.22;;;4.65;;
78985;SDS011;68384;55.750;48.746;2023-12-04T05:29:12;7.03;;;4.55;;
78985;SDS011;68384;55.750;48.746;2023-12-04T05:30:15;6.35;;;3.83;;
78985;SDS011;68384;55.750;48.746;2023-12-04T05:31:17;7.15;;;4.28;;
78985;SDS011;68384;55.750;48.746;2023-12-04T05:32:20;7.30;;;4.13;;
78985;SDS011;68384;55.750;48.746;2023-12-04T05:33:22;6.35;;;3.88;;
78985;SDS011;68384;55.750;48.746;2023-12-04T05:34:24;5.32;;;3.25;;
78985;SDS011;68384;55.750;48.746;2023-12-04T05:35:27;5.40;;;3.50;;
78985;SDS011;68384;55.750;48.746;2023-12-04T05:36:30;5.45;;;3.55;;
78985;SDS011;68384;55.750;48.746;2023-12-04T05:37:32;7.03;;;3.70;;
78985;SDS011;68384;55.750;48.746;2023-12-04T05:38:34;6.35;;;4.40;;
78985;SDS011;68384;55.750;48.746;2023-12-04T05:39:37;6.13;;;4.43;;
78985;SDS011;68384;55.750;48.746;2023-12-04T05:40:39;5.93;;;3.65;;
78985;SDS011;68384;55.750;48.746;2023-12-04T05:41:43;5.25;;;3.05;;
78985;SDS011;68384;55.750;48.746;2023-12-04T05:42:45;7.68;;;3.90;;
78985;SDS011;68384;55.750;48.746;2023-12-04T05:43:48;7.05;;;4.25;;
78985;SDS011;68384;55.750;48.746;2023-12-04T05:44:51;6.55;;;3.30;;
78985;SDS011;68384;55.750;48.746;2023-12-04T05:45:57;5.90;;;2.97;;
78985;SDS011;68384;55.750;48.746;2023-12-04T05:46:59;6.80;;;4.03;;
78985;SDS011;68384;55.750;48.746;2023-12-04T05:48:02;5.93;;;4.05;;
78985;SDS011;68384;55.750;48.746;2023-12-04T05:49:04;4.53;;;3.03;;
78985;SDS011;68384;55.750;48.746;2023-12-04T05:50:07;4.10;;;2.83;;
78985;SDS011;68384;55.750;48.746;2023-12-04T05:51:11;4.53;;;2.63;;
78985;SDS011;68384;55.750;48.746;2023-12-04T05:52:14;4.20;;;2.70;;
78985;SDS011;68384;55.750;48.746;2023-12-04T05:53:16;4.85;;;3.15;;
78985;SDS011;68384;55.750;48.746;2023-12-04T05:54:19;5.13;;;3.05;;
78985;SDS011;68384;55.750;48.746;2023-12-04T05:55:21;4.38;;;2.55;;
78985;SDS011;68384;55.750;48.746;2023-12-04T05:56:24;6.03;;;2.55;;
78985;SDS011;68384;55.750;48.746;2023-12-04T05:57:26;4.07;;;2.67;;
78985;SDS011;68384;55.750;48.746;2023-12-04T05:58:28;4.63;;;2.65;;
78985;SDS011;68384;55.750;48.746;2023-12-04T05:59:31;4.65;;;2.70;;
78985;SDS011;68384;55.750;48.746;2023-12-04T06:00:33;4.53;;;2.80;;
78985;SDS011;68384;55.750;48.746;2023-12-04T06:01:36;3.42;;;2.30;;
78985;SDS011;68384;55.750;48.746;2023-12-04T06:02:43;7.82;;;2.15;;
78985;SDS011;68384;55.750;48.746;2023-12-04T06:03:47;4.72;;;2.60;;
78985;SDS011;68384;55.750;48.746;2023-12-04T06:04:49;3.78;;;2.60;;
78985;SDS011;68384;55.750;48.746;2023-12-04T06:05:52;3.30;;;2.40;;
78985;SDS011;68384;55.750;48.746;2023-12-04T06:06:58;2.50;;;1.75;;
78985;SDS011;68384;55.750;48.746;2023-12-04T06:08:00;2.90;;;2.03;;
78985;SDS011;68384;55.750;48.746;2023-12-04T06:09:02;2.60;;;1.55;;
78985;SDS011;68384;55.750;48.746;2023-12-04T06:10:05;3.67;;;2.10;;
78985;SDS011;68384;55.750;48.746;2023-12-04T06:11:08;3.53;;;2.25;;
78985;SDS011;68384;55.750;48.746;2023-12-04T06:12:11;3.08;;;2.20;;
78985;SDS011;68384;55.750;48.746;2023-12-04T06:13:13;3.47;;;1.90;;
78985;SDS011;68384;55.750;48.746;2023-12-04T06:14:16;3.30;;;1.92;;
78985;SDS011;68384;55.750;48.746;2023-12-04T06:15:18;2.63;;;1.77;;
78985;SDS011;68384;55.750;48.746;2023-12-04T06:16:21;4.47;;;2.22;;